Avoca, Pennsylvania
Current Conditions -  °F | °C
As of 4:54 PM on Tuesday 21 Oct 2014 (Local Time) from KAVP Reporting Station
Overcast Overcast  
Wind Chill: 60°   Ceiling: 8500
Heat Index: 60°   Visibility: 10mi
Dew Point: 46°   Wind: 3mph
Humidity: 60%   Direction: 240°WSW
Pressure: 29.84"   Gusts: NA
Location:  41.3331°N, 75.7365°W
Report Text: KAVP 212054Z 24003KT 10SM FEW047 OVC085 16/08 A2984 RMK AO2 SLP103 T01560078 53003
Loading
Personal Weather Stations






























Interactive Weather Map
Tropical Storm Tracking
New forecast layout! Learn more

10-Day Weather Forecast

Advertisements
Track Severe Weather on mobile